CheckWX is a tool to help pilots better visualize weather data.  It is not intended as a substitute for an official pre-flight weather briefing.

23:37:04 UTC

KJAC METAR
Jackson Hole Airport
Jackson, Wyoming, USA
Current

41 mins ago

KJAC 182256Z AUTO 22017G24KT 9SM -SN FEW028 SCT041 BKN050 04/M05 A2991 RMK AO2 SLP138 P0000 T00441050
Observed
Oct-18 @ 22:56 UTC
Wind
  • 220° at 17 KTS
  • Gusting to 24 KTS
Visibility
9 SM
Flight Rules
VFR
Conditions
Light Snow
Cloud Levels
  • Few at 2,800' AGL
  • Scattered at 4,100' AGL
  • Broken at 5,000' AGL
Temperature
C / 39°F
Dewpoint
-5°C / 23°F
Humidity
52%
Altimeter
29.91" Hg
Pressure
1012.92 hPa
Current Rain
0.01"
Previous

2 hours ago

KJAC 182207Z AUTO -SN 03/M01 RMK AO2 P0000 $
Observed
Oct-18 @ 22:07 UTC
Visibility
Conditions
Light Snow
Temperature
C / 37°F
Dewpoint
-1°C / 30°F
Humidity
75%
Current Rain
0.01"
Previous

2 hours ago

KJAC 182156Z AUTO 19015G21KT 9SM -SN BKN018 OVC023 03/M01 A2990 RMK AO2 SLP139 P0000 T00281011
Observed
Oct-18 @ 21:56 UTC
Wind
  • 190° at 15 KTS
  • Gusting to 21 KTS
Visibility
9 SM
Flight Rules
MVFR
Conditions
Light Snow
Cloud Levels
  • Broken at 1,800' AGL
  • Overcast at 2,300' AGL
Temperature
C / 37°F
Dewpoint
-1°C / 30°F
Humidity
75%
Altimeter
29.9" Hg
Pressure
1012.52 hPa
Current Rain
0.01"